createdAt,value
2023-04-15T00:01:01.309Z,9.21
2023-04-15T00:03:28.710Z,9.24
2023-04-15T00:05:55.420Z,9.21
2023-04-15T00:08:22.098Z,9.19
2023-04-15T00:10:49.283Z,9.17
2023-04-15T00:13:16.478Z,9.14
2023-04-15T00:15:43.373Z,9.14
2023-04-15T00:18:10.196Z,9.11
2023-04-15T00:20:37.240Z,9.10
2023-04-15T00:23:04.171Z,9.05
2023-04-15T00:25:31.426Z,9.07
2023-04-15T00:27:58.197Z,9.04
2023-04-15T00:30:25.678Z,9.01
2023-04-15T00:32:52.656Z,8.97
2023-04-15T00:35:19.379Z,8.93
2023-04-15T00:37:46.309Z,8.90
2023-04-15T00:40:14.005Z,8.84
2023-04-15T00:42:41.170Z,8.84
2023-04-15T00:45:08.779Z,8.82
2023-04-15T00:47:37.598Z,8.78
2023-04-15T00:50:04.962Z,8.76
2023-04-15T00:52:31.945Z,8.73
2023-04-15T00:54:59.442Z,8.70
2023-04-15T00:57:26.137Z,8.67
2023-04-15T00:59:52.712Z,8.66
2023-04-15T01:02:19.983Z,8.58
2023-04-15T01:04:47.020Z,8.61
2023-04-15T01:07:13.606Z,8.54
2023-04-15T01:09:40.636Z,8.53
2023-04-15T01:12:10.267Z,8.49
2023-04-15T01:14:36.985Z,8.47
2023-04-15T01:17:03.615Z,8.44
2023-04-15T01:19:31.204Z,8.42
2023-04-15T01:21:57.930Z,8.38
2023-04-15T01:24:28.040Z,8.38
2023-04-15T01:26:54.900Z,8.36
2023-04-15T01:29:22.295Z,8.33
2023-04-15T01:31:54.958Z,8.31
2023-04-15T01:34:22.235Z,8.29
2023-04-15T01:36:48.818Z,8.23
2023-04-15T01:39:15.821Z,8.26
2023-04-15T01:41:42.433Z,8.22
2023-04-15T01:44:09.158Z,8.22
2023-04-15T01:46:36.263Z,8.19
2023-04-15T01:49:02.955Z,8.17
2023-04-15T01:51:29.503Z,8.17
2023-04-15T01:53:58.873Z,8.15
2023-04-15T01:56:25.505Z,8.11
2023-04-15T01:58:52.927Z,8.10
2023-04-15T02:01:20.806Z,8.03
2023-04-15T02:03:48.213Z,7.99
2023-04-15T02:06:14.911Z,7.97
2023-04-15T02:08:41.616Z,7.94
2023-04-15T02:11:08.405Z,7.92
2023-04-15T02:13:34.959Z,7.90
2023-04-15T02:16:01.640Z,7.86
2023-04-15T02:18:28.237Z,7.80
2023-04-15T02:20:56.609Z,7.81
2023-04-15T02:23:23.123Z,7.81
2023-04-15T02:25:53.546Z,7.76
2023-04-15T02:28:21.262Z,7.77
2023-04-15T02:30:53.375Z,7.73
2023-04-15T02:33:22.136Z,7.73
2023-04-15T02:35:48.765Z,7.69
2023-04-15T02:38:16.787Z,7.65
2023-04-15T02:40:43.327Z,7.64
2023-04-15T02:43:09.848Z,7.62
2023-04-15T02:45:36.353Z,7.58
2023-04-15T02:48:06.141Z,7.53
2023-04-15T02:50:33.105Z,7.50
2023-04-15T02:53:01.391Z,7.41
2023-04-15T02:55:28.787Z,7.39
2023-04-15T02:57:55.558Z,7.33
2023-04-15T03:00:22.409Z,7.25
2023-04-15T03:02:52.379Z,7.19
2023-04-15T03:05:19.099Z,7.15
2023-04-15T03:07:45.766Z,7.11
2023-04-15T03:10:12.469Z,7.06
2023-04-15T03:12:39.426Z,7.03
2023-04-15T03:15:06.846Z,7.01
2023-04-15T03:17:33.518Z,6.96
2023-04-15T03:20:02.458Z,6.96
2023-04-15T03:22:29.026Z,6.95
2023-04-15T03:24:56.108Z,6.92
2023-04-15T03:27:22.880Z,6.90
2023-04-15T03:29:49.731Z,6.88
2023-04-15T03:32:16.701Z,6.85
2023-04-15T03:34:43.482Z,6.82
2023-04-15T03:37:09.992Z,6.78
2023-04-15T03:39:36.807Z,6.76
2023-04-15T03:42:03.885Z,6.72
2023-04-15T03:44:30.500Z,6.68
2023-04-15T03:46:57.084Z,6.67
2023-04-15T03:49:24.755Z,6.58
2023-04-15T03:51:51.557Z,6.56
2023-04-15T03:54:18.036Z,6.50
2023-04-15T03:56:44.541Z,6.47
2023-04-15T03:59:11.432Z,6.43
2023-04-15T04:01:37.974Z,6.40
2023-04-15T04:04:04.743Z,6.35
2023-04-15T04:06:31.575Z,6.30
2023-04-15T04:08:58.263Z,6.23
2023-04-15T04:11:24.846Z,6.22
2023-04-15T04:13:51.351Z,6.19
2023-04-15T04:16:18.036Z,6.15
2023-04-15T04:18:44.632Z,6.12
2023-04-15T04:21:11.571Z,6.08
2023-04-15T04:23:38.139Z,6.05
2023-04-15T04:26:04.646Z,6.03
2023-04-15T04:28:31.724Z,6.01
2023-04-15T04:30:58.254Z,5.98
2023-04-15T04:33:25.003Z,5.95
2023-04-15T04:35:51.516Z,5.92
2023-04-15T04:38:18.014Z,5.91
2023-04-15T04:40:44.588Z,5.88
2023-04-15T04:43:11.213Z,5.85
2023-04-15T04:45:37.855Z,5.82
2023-04-15T04:48:07.285Z,5.78
2023-04-15T04:50:34.900Z,5.79
2023-04-15T04:53:01.939Z,5.77
2023-04-15T04:55:28.648Z,5.75
2023-04-15T04:57:55.610Z,5.74
2023-04-15T05:00:22.792Z,5.75
2023-04-15T05:02:49.718Z,5.73
2023-04-15T05:05:16.501Z,5.73
2023-04-15T05:07:43.180Z,5.73
2023-04-15T05:10:10.095Z,5.71
2023-04-15T05:12:38.413Z,5.73
2023-04-15T05:15:06.351Z,5.74
2023-04-15T05:17:35.252Z,5.77
2023-04-15T05:20:03.462Z,5.79
2023-04-15T05:22:30.117Z,5.83
2023-04-15T05:24:56.641Z,5.86
2023-04-15T05:27:24.057Z,5.89
2023-04-15T05:29:50.632Z,5.94
2023-04-15T05:32:17.359Z,5.92
2023-04-15T05:34:43.978Z,5.96
2023-04-15T05:37:10.478Z,5.98
2023-04-15T05:39:38.065Z,6.01
2023-04-15T05:42:06.005Z,6.05
2023-04-15T05:44:35.517Z,6.10
2023-04-15T05:47:03.521Z,6.11
2023-04-15T05:49:30.077Z,6.13
2023-04-15T05:51:56.709Z,6.21
2023-04-15T05:54:23.452Z,6.27
2023-04-15T05:56:50.271Z,6.30
2023-04-15T05:59:16.787Z,6.34
2023-04-15T06:01:43.850Z,6.37
2023-04-15T06:04:11.534Z,6.39
2023-04-15T06:06:38.656Z,6.41
2023-04-15T06:09:05.274Z,6.44
2023-04-15T06:11:32.066Z,6.51
2023-04-15T06:13:58.627Z,6.53
2023-04-15T06:16:25.229Z,6.58
2023-04-15T06:18:51.752Z,6.64
2023-04-15T06:21:18.532Z,6.69
2023-04-15T06:23:45.210Z,6.75
2023-04-15T06:26:11.696Z,6.82
2023-04-15T06:28:38.209Z,6.89
2023-04-15T06:31:04.870Z,7.00
2023-04-15T06:33:31.896Z,7.08
2023-04-15T06:35:58.584Z,7.20
2023-04-15T06:38:25.315Z,7.37
2023-04-15T06:40:51.901Z,7.57
2023-04-15T06:43:18.528Z,7.80
2023-04-15T06:45:45.837Z,8.05
2023-04-15T06:48:12.971Z,8.28
2023-04-15T06:50:39.578Z,8.56
2023-04-15T06:53:06.550Z,8.86
2023-04-15T06:55:33.963Z,9.20
2023-04-15T06:58:00.675Z,9.59
2023-04-15T07:00:28.564Z,10.09
2023-04-15T07:02:55.822Z,10.53
2023-04-15T07:05:22.606Z,10.87
2023-04-15T07:07:49.239Z,11.29
2023-04-15T07:10:15.901Z,11.63
2023-04-15T07:12:42.586Z,11.91
2023-04-15T07:15:09.426Z,12.08
2023-04-15T07:17:36.348Z,12.17
2023-04-15T07:20:05.298Z,12.22
2023-04-15T07:22:36.400Z,12.17
2023-04-15T07:27:44.064Z,12.19
2023-04-15T07:30:11.099Z,12.29
2023-04-15T07:32:37.739Z,12.45
2023-04-15T07:35:04.795Z,12.74
2023-04-15T07:37:31.412Z,12.96
2023-04-15T07:39:58.089Z,13.28
2023-04-15T07:42:25.384Z,13.62
2023-04-15T07:44:52.172Z,14.07
2023-04-15T07:47:18.791Z,14.43
2023-04-15T07:49:45.410Z,14.74
2023-04-15T07:52:12.304Z,14.94
2023-04-15T07:54:38.922Z,15.18
2023-04-15T07:57:05.456Z,15.17
2023-04-15T07:59:33.539Z,15.37
2023-04-15T08:02:00.410Z,15.65
2023-04-15T08:04:27.447Z,15.74
2023-04-15T08:06:54.781Z,15.79
2023-04-15T08:09:21.501Z,15.80
2023-04-15T08:11:51.178Z,15.92
2023-04-15T08:14:17.860Z,16.25
2023-04-15T08:16:44.523Z,16.19
2023-04-15T08:19:11.333Z,16.33
2023-04-15T08:21:37.978Z,16.41
2023-04-15T08:24:04.568Z,16.49
2023-04-15T08:26:31.222Z,16.60
2023-04-15T08:28:57.911Z,16.68
2023-04-15T08:31:28.636Z,16.90
2023-04-15T08:33:57.696Z,17.10
2023-04-15T08:36:24.250Z,17.10
2023-04-15T08:38:51.188Z,17.19
2023-04-15T08:41:25.712Z,17.25
2023-04-15T08:43:58.166Z,17.17
2023-04-15T08:46:25.433Z,17.06
2023-04-15T08:48:57.279Z,17.07
2023-04-15T08:51:25.143Z,16.89
2023-04-15T08:53:53.582Z,16.75
2023-04-15T08:56:26.281Z,16.69
2023-04-15T08:58:53.325Z,16.58
2023-04-15T09:01:20.495Z,16.65
2023-04-15T09:03:49.330Z,16.68
2023-04-15T09:06:17.857Z,16.88
2023-04-15T09:08:44.883Z,17.04
2023-04-15T09:11:11.452Z,17.39
2023-04-15T09:13:38.221Z,17.57
2023-04-15T09:16:08.523Z,17.65
2023-04-15T09:18:38.682Z,17.70
2023-04-15T09:21:11.935Z,17.88
2023-04-15T09:23:40.977Z,17.90
2023-04-15T09:26:08.224Z,17.92
2023-04-15T09:28:43.147Z,17.98
2023-04-15T09:31:10.777Z,17.98
2023-04-15T09:33:56.955Z,18.13
2023-04-15T09:36:24.983Z,18.21
2023-04-15T09:38:59.383Z,18.04
2023-04-15T09:41:27.269Z,17.94
2023-04-15T09:43:53.933Z,17.77
2023-04-15T09:46:20.530Z,17.75
2023-04-15T09:48:47.487Z,17.72
2023-04-15T09:51:15.040Z,17.57
2023-04-15T09:53:41.614Z,17.53
2023-04-15T09:56:09.078Z,17.45
2023-04-15T09:58:37.105Z,17.41
2023-04-15T10:01:06.150Z,17.11
2023-04-15T10:03:38.109Z,17.12
2023-04-15T10:06:07.861Z,16.94
2023-04-15T10:08:34.930Z,17.07
2023-04-15T10:11:06.217Z,17.25
2023-04-15T10:13:35.002Z,17.26
2023-04-15T10:16:14.295Z,17.42
2023-04-15T10:18:44.473Z,17.33
2023-04-15T10:21:11.198Z,17.51
2023-04-15T10:23:39.527Z,17.83
2023-04-15T10:26:06.644Z,17.93
2023-04-15T10:28:33.201Z,17.78
2023-04-15T10:31:01.716Z,18.05
2023-04-15T10:33:29.840Z,18.16
2023-04-15T10:35:57.745Z,18.24
2023-04-15T10:38:34.805Z,18.04
2023-04-15T10:41:22.590Z,18.03
2023-04-15T10:44:05.642Z,17.91
2023-04-15T10:46:38.215Z,17.94
2023-04-15T10:49:13.344Z,17.65
2023-04-15T10:51:46.348Z,17.53
2023-04-15T10:54:26.366Z,17.27
2023-04-15T10:57:22.309Z,17.20
2023-04-15T10:59:58.631Z,17.21
2023-04-15T11:02:54.702Z,17.09
2023-04-15T11:05:23.718Z,16.93
2023-04-15T11:07:56.131Z,17.00
2023-04-15T11:10:25.873Z,17.01
2023-04-15T11:12:58.511Z,17.09
2023-04-15T11:15:40.556Z,17.21
2023-04-15T11:18:21.338Z,17.23
2023-04-15T11:20:54.724Z,16.98
2023-04-15T11:23:30.267Z,16.86
2023-04-15T11:25:58.627Z,16.92
2023-04-15T11:28:34.246Z,17.06
2023-04-15T11:31:14.790Z,17.21
2023-04-15T11:33:59.620Z,17.20
2023-04-15T11:36:28.729Z,17.16
2023-04-15T11:38:55.919Z,17.24
2023-04-15T11:41:23.727Z,17.13
2023-04-15T11:43:50.962Z,17.00
2023-04-15T11:46:17.872Z,17.09
2023-04-15T11:48:46.052Z,17.31
2023-04-15T11:51:14.384Z,17.38
2023-04-15T11:53:51.937Z,17.30
2023-04-15T11:56:21.484Z,17.35
2023-04-15T11:58:50.780Z,17.30
2023-04-15T12:01:17.715Z,17.31
2023-04-15T12:03:49.316Z,17.44
2023-04-15T12:06:24.395Z,17.37
2023-04-15T12:09:06.069Z,17.19
2023-04-15T12:11:35.774Z,17.15
2023-04-15T12:14:08.987Z,17.03
2023-04-15T12:16:47.907Z,16.98
2023-04-15T12:19:24.569Z,17.01
2023-04-15T12:21:52.291Z,16.90
2023-04-15T12:24:24.834Z,16.68
2023-04-15T12:26:54.245Z,16.58
2023-04-15T12:29:26.626Z,16.43
2023-04-15T12:31:55.019Z,16.42
2023-04-15T12:34:36.284Z,16.21
2023-04-15T12:37:04.972Z,16.03
2023-04-15T12:39:35.450Z,15.96
2023-04-15T12:42:03.362Z,15.86
2023-04-15T12:44:30.257Z,15.87
2023-04-15T12:46:57.594Z,15.70
2023-04-15T12:49:25.484Z,15.67
2023-04-15T12:51:54.869Z,15.75
2023-04-15T12:54:21.616Z,15.67
2023-04-15T12:56:50.244Z,15.60
2023-04-15T12:59:20.129Z,15.39
2023-04-15T13:01:48.239Z,15.39
2023-04-15T13:04:16.431Z,15.51
2023-04-15T13:06:43.936Z,15.59
2023-04-15T13:09:10.804Z,15.44
2023-04-15T13:11:37.439Z,15.35
2023-04-15T13:14:06.828Z,15.25
2023-04-15T13:16:34.826Z,15.13
2023-04-15T13:19:03.210Z,15.04
2023-04-15T13:21:32.074Z,15.05
2023-04-15T13:23:59.379Z,15.05
2023-04-15T13:26:26.545Z,14.94
2023-04-15T13:28:53.114Z,14.89
2023-04-15T13:31:19.837Z,14.92
2023-04-15T13:33:46.406Z,14.85
2023-04-15T13:36:12.968Z,14.85
2023-04-15T13:38:39.477Z,14.83
2023-04-15T13:41:06.082Z,14.72
2023-04-15T13:43:34.148Z,14.65
2023-04-15T13:46:03.580Z,14.69
2023-04-15T13:48:30.221Z,14.54
2023-04-15T13:50:56.808Z,14.55
2023-04-15T13:53:33.782Z,14.53
2023-04-15T13:56:10.215Z,14.58
2023-04-15T13:58:37.955Z,14.50
2023-04-15T14:01:06.797Z,14.48
2023-04-15T14:03:36.079Z,14.41
2023-04-15T14:06:03.093Z,14.38
2023-04-15T14:08:30.047Z,14.35
2023-04-15T14:10:57.610Z,14.25
2023-04-15T14:13:24.254Z,14.12
2023-04-15T14:15:50.768Z,14.00
2023-04-15T14:18:17.335Z,13.95
2023-04-15T14:20:43.880Z,13.92
2023-04-15T14:23:10.396Z,13.87
2023-04-15T14:25:39.133Z,13.78
2023-04-15T14:28:05.787Z,13.74
2023-04-15T14:30:32.558Z,13.68
2023-04-15T14:32:59.253Z,13.62
2023-04-15T14:35:26.818Z,13.62
2023-04-15T14:37:56.458Z,13.64
2023-04-15T14:40:24.206Z,13.65
2023-04-15T14:42:50.797Z,13.62
2023-04-15T14:45:17.647Z,13.54
2023-04-15T14:47:44.787Z,13.47
2023-04-15T14:50:11.426Z,13.41
2023-04-15T14:52:40.865Z,13.33
2023-04-15T14:55:12.182Z,13.33
2023-04-15T14:57:40.905Z,13.25
2023-04-15T15:00:09.882Z,13.18
2023-04-15T15:02:40.230Z,13.09
2023-04-15T15:05:08.723Z,13.02
2023-04-15T15:07:37.156Z,13.03
2023-04-15T15:10:04.805Z,13.02
2023-04-15T15:12:32.033Z,13.02
2023-04-15T15:14:58.569Z,13.08
2023-04-15T15:17:25.318Z,12.98
2023-04-15T15:19:51.844Z,12.90
2023-04-15T15:22:20.834Z,12.80
2023-04-15T15:24:48.146Z,12.68
2023-04-15T15:27:14.726Z,12.61
2023-04-15T15:29:41.373Z,12.57
2023-04-15T15:32:08.199Z,12.57
2023-04-15T15:34:37.747Z,12.46
2023-04-15T15:37:04.387Z,12.47
2023-04-15T15:39:31.213Z,12.37
2023-04-15T15:41:57.826Z,12.24
2023-04-15T15:44:24.393Z,12.27
2023-04-15T15:46:51.199Z,12.25
2023-04-15T15:49:18.028Z,12.23
2023-04-15T15:51:45.988Z,12.17
2023-04-15T15:54:12.854Z,12.18
2023-04-15T15:56:39.564Z,12.04
2023-04-15T15:59:06.622Z,11.99
2023-04-15T16:01:33.617Z,11.95
2023-04-15T16:04:00.783Z,11.94
2023-04-15T16:06:27.666Z,11.89
2023-04-15T16:08:54.172Z,11.86
2023-04-15T16:11:20.849Z,11.88
2023-04-15T16:13:47.367Z,11.91
2023-04-15T16:16:14.103Z,11.82
2023-04-15T16:18:40.720Z,11.76
2023-04-15T16:21:07.675Z,11.70
2023-04-15T16:23:34.311Z,11.62
2023-04-15T16:26:00.889Z,11.59
2023-04-15T16:28:27.526Z,11.52
2023-04-15T16:30:55.948Z,11.54
2023-04-15T16:33:22.631Z,11.48
2023-04-15T16:35:49.269Z,11.40
2023-04-15T16:38:15.894Z,11.34
2023-04-15T16:40:42.531Z,11.19
2023-04-15T16:43:11.136Z,11.22
2023-04-15T16:45:37.924Z,11.19
2023-04-15T16:48:04.765Z,11.09
2023-04-15T16:50:31.487Z,11.10
2023-04-15T16:52:58.088Z,11.11
2023-04-15T16:55:24.916Z,11.05
2023-04-15T16:58:02.335Z,11.05
2023-04-15T17:00:31.314Z,10.93
2023-04-15T17:02:58.653Z,10.89
2023-04-15T17:05:27.453Z,10.90
2023-04-15T17:07:55.020Z,10.80
2023-04-15T17:10:21.734Z,10.81
2023-04-15T17:12:49.739Z,10.80
2023-04-15T17:15:16.350Z,10.74
2023-04-15T17:17:43.069Z,10.73
2023-04-15T17:20:10.504Z,10.69
2023-04-15T17:22:37.255Z,10.68
2023-04-15T17:25:04.648Z,10.65
2023-04-15T17:27:31.208Z,10.67
2023-04-15T17:29:57.962Z,10.68
2023-04-15T17:32:30.578Z,10.67
2023-04-15T17:34:57.319Z,10.67
2023-04-15T17:37:24.047Z,10.61
2023-04-15T17:39:50.622Z,10.56
2023-04-15T17:42:17.602Z,10.50
2023-04-15T17:44:45.526Z,10.46
2023-04-15T17:47:12.216Z,10.48
2023-04-15T17:49:38.831Z,10.48
2023-04-15T17:52:05.844Z,10.46
2023-04-15T17:54:32.463Z,10.42
2023-04-15T17:57:00.094Z,10.38
2023-04-15T17:59:27.532Z,10.38
2023-04-15T18:01:54.207Z,10.40
2023-04-15T18:04:22.024Z,10.45
2023-04-15T18:06:49.917Z,10.46
2023-04-15T18:09:16.541Z,10.41
2023-04-15T18:11:44.992Z,10.39
2023-04-15T18:14:15.696Z,10.36
2023-04-15T18:16:50.050Z,10.38
2023-04-15T18:19:16.616Z,10.32
2023-04-15T18:21:43.393Z,10.32
2023-04-15T18:24:09.984Z,10.32
2023-04-15T18:26:36.714Z,10.32
2023-04-15T18:29:03.229Z,10.28
2023-04-15T18:31:29.841Z,10.29
2023-04-15T18:33:56.717Z,10.23
2023-04-15T18:36:24.071Z,10.20
2023-04-15T18:38:50.651Z,10.17
2023-04-15T18:41:17.256Z,10.13
2023-04-15T18:43:44.030Z,10.14
2023-04-15T18:46:12.262Z,10.16
2023-04-15T18:48:38.864Z,10.06
2023-04-15T18:51:05.472Z,10.00
2023-04-15T18:53:32.398Z,9.97
2023-04-15T18:56:01.616Z,9.98
2023-04-15T18:58:28.414Z,9.98
2023-04-15T19:01:15.366Z,9.93
2023-04-15T19:03:42.029Z,9.93
2023-04-15T19:06:08.693Z,9.91
2023-04-15T19:08:35.281Z,9.92
2023-04-15T19:11:02.053Z,9.87
2023-04-15T19:13:28.641Z,9.83
2023-04-15T19:15:55.273Z,9.81
2023-04-15T19:18:21.825Z,9.84
2023-04-15T19:20:50.356Z,9.80
2023-04-15T19:23:17.022Z,9.78
2023-04-15T19:25:43.682Z,9.79
2023-04-15T19:28:10.418Z,9.81
2023-04-15T19:30:37.083Z,9.76
2023-04-15T19:33:03.870Z,9.69
2023-04-15T19:35:30.490Z,9.74
2023-04-15T19:37:57.159Z,9.77
2023-04-15T19:40:24.122Z,9.72
2023-04-15T19:42:50.667Z,9.75
2023-04-15T19:45:17.410Z,9.70
2023-04-15T19:47:44.065Z,9.72
2023-04-15T19:50:12.012Z,9.67
2023-04-15T19:52:38.611Z,9.70
2023-04-15T19:55:05.682Z,9.67
2023-04-15T19:57:32.276Z,9.64
2023-04-15T19:59:58.954Z,9.60
2023-04-15T20:02:25.721Z,9.62
2023-04-15T20:04:52.613Z,9.62
2023-04-15T20:07:19.219Z,9.53
2023-04-15T20:09:46.004Z,9.51
2023-04-15T20:12:50.192Z,9.52
2023-04-15T20:14:59.190Z,9.57
2023-04-15T20:17:28.167Z,9.61
2023-04-15T20:19:54.978Z,9.59
2023-04-15T20:22:22.862Z,9.62
2023-04-15T20:24:49.435Z,9.56
2023-04-15T20:27:16.101Z,9.58
2023-04-15T20:29:42.942Z,9.58
2023-04-15T20:32:11.416Z,9.55
2023-04-15T20:34:40.479Z,9.58
2023-04-15T20:37:08.391Z,9.58
2023-04-15T20:39:34.972Z,9.59
2023-04-15T20:42:01.629Z,9.62
2023-04-15T20:44:28.419Z,9.56
2023-04-15T20:46:55.087Z,9.60
2023-04-15T20:49:21.815Z,9.58
2023-04-15T20:51:49.261Z,9.61
2023-04-15T20:54:16.186Z,9.60
2023-04-15T20:56:42.742Z,9.59
2023-04-15T20:59:09.276Z,9.56
2023-04-15T21:01:35.990Z,9.56
2023-04-15T21:04:02.681Z,9.58
2023-04-15T21:06:29.408Z,9.56
2023-04-15T21:08:56.405Z,9.61
2023-04-15T21:11:43.168Z,9.58
2023-04-15T21:14:09.428Z,9.60
2023-04-15T21:16:36.050Z,9.58
2023-04-15T21:19:02.757Z,9.58
2023-04-15T21:21:29.342Z,9.59
2023-04-15T21:23:55.936Z,9.59
2023-04-15T21:26:22.529Z,9.60
2023-04-15T21:28:49.162Z,9.59
2023-04-15T21:31:16.153Z,9.58
2023-04-15T21:33:42.743Z,9.57
2023-04-15T21:36:09.327Z,9.51
2023-04-15T21:38:39.107Z,9.58
2023-04-15T21:41:09.503Z,9.56
2023-04-15T21:43:37.196Z,9.58
2023-04-15T21:46:21.964Z,9.55
2023-04-15T21:48:50.463Z,9.55
2023-04-15T21:51:17.029Z,9.57
2023-04-15T21:53:43.656Z,9.53
2023-04-15T21:56:10.292Z,9.54
2023-04-15T21:58:36.811Z,9.50
2023-04-15T22:01:04.760Z,9.55
2023-04-15T22:03:33.964Z,9.57
2023-04-15T22:06:01.911Z,9.56
2023-04-15T22:08:28.622Z,9.55
2023-04-15T22:10:55.710Z,9.56
2023-04-15T22:13:22.366Z,9.54
2023-04-15T22:15:48.914Z,9.59
2023-04-15T22:18:15.547Z,9.59
2023-04-15T22:20:42.281Z,9.58
2023-04-15T22:23:09.770Z,9.61
2023-04-15T22:25:37.250Z,9.61
2023-04-15T22:28:06.908Z,9.58
2023-04-15T22:30:36.787Z,9.56
2023-04-15T22:33:03.503Z,9.60
2023-04-15T22:35:30.106Z,9.60
2023-04-15T22:37:56.692Z,9.60
2023-04-15T22:40:23.237Z,9.55
2023-04-15T22:42:49.807Z,9.60
2023-04-15T22:45:16.493Z,9.57
2023-04-15T22:47:43.363Z,9.60
2023-04-15T22:50:10.062Z,9.61
2023-04-15T22:52:36.965Z,9.60
2023-04-15T22:55:04.354Z,9.62
2023-04-15T22:57:31.424Z,9.59
2023-04-15T22:59:57.975Z,9.63
2023-04-15T23:02:25.044Z,9.66
2023-04-15T23:04:51.862Z,9.63
2023-04-15T23:07:18.518Z,9.66
2023-04-15T23:09:45.414Z,9.65
2023-04-15T23:12:13.370Z,9.64
2023-04-15T23:14:39.886Z,9.65
2023-04-15T23:17:06.460Z,9.67
2023-04-15T23:19:33.004Z,9.64
2023-04-15T23:21:59.532Z,9.66
2023-04-15T23:24:26.356Z,9.65
2023-04-15T23:26:53.145Z,9.61
2023-04-15T23:29:19.742Z,9.64
2023-04-15T23:31:46.402Z,9.61
2023-04-15T23:34:12.925Z,9.61
2023-04-15T23:36:39.521Z,9.65
2023-04-15T23:39:06.262Z,9.62
2023-04-15T23:41:32.829Z,9.62
2023-04-15T23:43:59.433Z,9.65
2023-04-15T23:46:26.049Z,9.61
2023-04-15T23:48:52.814Z,9.62
2023-04-15T23:51:19.604Z,9.64
2023-04-15T23:53:46.202Z,9.63
2023-04-15T23:56:12.789Z,9.60
2023-04-15T23:58:39.369Z,9.62
